ESNK/KRF METAR and TAF weather

Enter ICAO airport designator
Station Type Date Time Source
ESNK METAR 2019/12/16 03:20 UTC NOAA

ESNK 160320Z AUTO 35003KT 8000 OVC003/// 01/01 Q0992


Station Type Date Time Source
ESNK Decoded METAR 2019/12/16 03:20 UTC NOAA

Kramfors Flygplats, Sweden (ESNK) 63-03N 017-46E 19M
Dec 15, 2019 - 10:20 PM EST / 2019.12.16 0320 UTC
Wind: from the N (350 degrees) at 3 MPH (3 KT):0
Visibility: 4 mile(s):0
Sky conditions: overcast
Temperature: 33 F (1 C)
Dew Point: 33 F (1 C)
Relative Humidity: 100%
Pressure (altimeter): 29.29 in. Hg (0992 hPa)
ob: ESNK 160320Z AUTO 35003KT 8000 OVC003/// 01/01 Q0992
cycle: 3

Station Type Date Time Source
ESNK TAF 2017/12/15 06:00 UTC NOAA

TAF
AMD ESNK 150654Z 1506/1521 35005KT 6000 -SN BKN016
TEMPO 1506/1521 2000 SN SG VV009

Example: see airport list